sensor_id;sensor_type;location;lat;lon;timestamp;temperature;humidity
9201;DHT22;4635;48.686;9.008;2022-08-16T00:02:27;17.90;99.90
9201;DHT22;4635;48.686;9.008;2022-08-16T00:05:11;17.80;99.90
9201;DHT22;4635;48.686;9.008;2022-08-16T00:07:48;17.70;99.90
9201;DHT22;4635;48.686;9.008;2022-08-16T00:10:32;17.70;99.90
9201;DHT22;4635;48.686;9.008;2022-08-16T00:13:09;17.70;99.90
9201;DHT22;4635;48.686;9.008;2022-08-16T00:16:02;17.70;99.90
9201;DHT22;4635;48.686;9.008;2022-08-16T00:18:38;17.70;99.90
9201;DHT22;4635;48.686;9.008;2022-08-16T00:21:11;17.70;99.90
9201;DHT22;4635;48.686;9.008;2022-08-16T00:23:43;17.70;99.90
9201;DHT22;4635;48.686;9.008;2022-08-16T00:26:18;17.80;99.90
9201;DHT22;4635;48.686;9.008;2022-08-16T00:28:54;17.90;99.90
9201;DHT22;4635;48.686;9.008;2022-08-16T00:31:40;17.90;99.90
9201;DHT22;4635;48.686;9.008;2022-08-16T00:34:14;17.80;99.90
9201;DHT22;4635;48.686;9.008;2022-08-16T00:36:44;17.80;99.90
9201;DHT22;4635;48.686;9.008;2022-08-16T00:39:21;17.60;99.90
9201;DHT22;4635;48.686;9.008;2022-08-16T00:42:05;17.70;99.90
9201;DHT22;4635;48.686;9.008;2022-08-16T00:44:52;17.70;99.90
9201;DHT22;4635;48.686;9.008;2022-08-16T00:47:54;17.70;99.90
9201;DHT22;4635;48.686;9.008;2022-08-16T00:50:39;17.70;99.90
9201;DHT22;4635;48.686;9.008;2022-08-16T00:53:14;17.70;99.90
9201;DHT22;4635;48.686;9.008;2022-08-16T00:55:51;17.80;99.90
9201;DHT22;4635;48.686;9.008;2022-08-16T00:58:29;17.80;99.90
9201;DHT22;4635;48.686;9.008;2022-08-16T01:01:09;17.80;99.90
9201;DHT22;4635;48.686;9.008;2022-08-16T01:03:54;17.80;99.90
9201;DHT22;4635;48.686;9.008;2022-08-16T01:06:28;17.80;99.90
9201;DHT22;4635;48.686;9.008;2022-08-16T01:09:12;17.90;99.90
9201;DHT22;4635;48.686;9.008;2022-08-16T01:12:01;17.80;99.90
9201;DHT22;4635;48.686;9.008;2022-08-16T01:14:50;17.80;99.90
9201;DHT22;4635;48.686;9.008;2022-08-16T01:17:36;17.80;99.90
9201;DHT22;4635;48.686;9.008;2022-08-16T01:20:30;17.70;99.90
9201;DHT22;4635;48.686;9.008;2022-08-16T01:23:19;17.70;99.90
9201;DHT22;4635;48.686;9.008;2022-08-16T01:25:58;17.70;99.90
9201;DHT22;4635;48.686;9.008;2022-08-16T01:28:32;17.80;99.90
9201;DHT22;4635;48.686;9.008;2022-08-16T01:31:08;17.70;99.90
9201;DHT22;4635;48.686;9.008;2022-08-16T01:33:44;17.70;99.90
9201;DHT22;4635;48.686;9.008;2022-08-16T01:36:18;17.60;99.90
9201;DHT22;4635;48.686;9.008;2022-08-16T01:39:09;17.70;99.90
9201;DHT22;4635;48.686;9.008;2022-08-16T01:45:01;17.70;99.90
9201;DHT22;4635;48.686;9.008;2022-08-16T01:48:08;17.70;99.90
9201;DHT22;4635;48.686;9.008;2022-08-16T01:50:57;17.70;99.90
9201;DHT22;4635;48.686;9.008;2022-08-16T01:53:30;17.70;99.90
9201;DHT22;4635;48.686;9.008;2022-08-16T01:56:03;17.70;99.90
9201;DHT22;4635;48.686;9.008;2022-08-16T01:58:45;17.70;99.90
9201;DHT22;4635;48.686;9.008;2022-08-16T02:01:39;17.80;99.90
9201;DHT22;4635;48.686;9.008;2022-08-16T02:04:18;17.80;99.90
9201;DHT22;4635;48.686;9.008;2022-08-16T02:06:52;17.90;99.90
9201;DHT22;4635;48.686;9.008;2022-08-16T02:09:39;17.90;99.90
9201;DHT22;4635;48.686;9.008;2022-08-16T02:12:13;17.90;99.90
9201;DHT22;4635;48.686;9.008;2022-08-16T02:14:57;18.00;99.90
9201;DHT22;4635;48.686;9.008;2022-08-16T02:17:46;18.00;99.90
9201;DHT22;4635;48.686;9.008;2022-08-16T02:20:22;18.00;99.90
9201;DHT22;4635;48.686;9.008;2022-08-16T02:22:59;18.10;99.90
9201;DHT22;4635;48.686;9.008;2022-08-16T02:25:42;18.00;99.90
9201;DHT22;4635;48.686;9.008;2022-08-16T02:28:18;18.00;99.90
9201;DHT22;4635;48.686;9.008;2022-08-16T02:30:54;18.10;99.90
9201;DHT22;4635;48.686;9.008;2022-08-16T02:33:45;18.00;99.90
9201;DHT22;4635;48.686;9.008;2022-08-16T02:36:24;18.00;99.90
9201;DHT22;4635;48.686;9.008;2022-08-16T02:39:00;17.90;99.90
9201;DHT22;4635;48.686;9.008;2022-08-16T02:41:39;17.80;99.90
9201;DHT22;4635;48.686;9.008;2022-08-16T02:44:24;17.70;99.90
9201;DHT22;4635;48.686;9.008;2022-08-16T02:47:12;17.50;99.90
9201;DHT22;4635;48.686;9.008;2022-08-16T02:49:51;17.60;99.90
9201;DHT22;4635;48.686;9.008;2022-08-16T02:52:35;17.50;99.90
9201;DHT22;4635;48.686;9.008;2022-08-16T02:55:20;17.40;99.90
9201;DHT22;4635;48.686;9.008;2022-08-16T02:57:59;17.30;99.90
9201;DHT22;4635;48.686;9.008;2022-08-16T03:00:58;17.20;99.90
9201;DHT22;4635;48.686;9.008;2022-08-16T03:03:45;17.20;99.90
9201;DHT22;4635;48.686;9.008;2022-08-16T03:06:28;17.10;99.90
9201;DHT22;4635;48.686;9.008;2022-08-16T03:09:02;17.10;99.90
9201;DHT22;4635;48.686;9.008;2022-08-16T03:11:49;17.10;99.90
9201;DHT22;4635;48.686;9.008;2022-08-16T03:14:23;17.10;99.90
9201;DHT22;4635;48.686;9.008;2022-08-16T03:17:07;17.10;99.90
9201;DHT22;4635;48.686;9.008;2022-08-16T03:19:46;17.00;99.90
9201;DHT22;4635;48.686;9.008;2022-08-16T03:22:25;17.10;99.90
9201;DHT22;4635;48.686;9.008;2022-08-16T03:25:14;17.00;99.90
9201;DHT22;4635;48.686;9.008;2022-08-16T03:27:51;17.00;1.00
9201;DHT22;4635;48.686;9.008;2022-08-16T03:30:31;17.00;99.90
9201;DHT22;4635;48.686;9.008;2022-08-16T03:33:05;17.00;99.90
9201;DHT22;4635;48.686;9.008;2022-08-16T03:35:46;17.00;99.90
9201;DHT22;4635;48.686;9.008;2022-08-16T03:39:10;17.00;99.90
9201;DHT22;4635;48.686;9.008;2022-08-16T03:41:53;17.00;99.90
9201;DHT22;4635;48.686;9.008;2022-08-16T03:44:37;17.00;99.90
9201;DHT22;4635;48.686;9.008;2022-08-16T03:47:24;17.00;99.90
9201;DHT22;4635;48.686;9.008;2022-08-16T03:49:57;17.10;99.90
9201;DHT22;4635;48.686;9.008;2022-08-16T03:52:32;17.10;99.90
9201;DHT22;4635;48.686;9.008;2022-08-16T03:55:26;17.10;99.90
9201;DHT22;4635;48.686;9.008;2022-08-16T03:58:10;17.20;99.90
9201;DHT22;4635;48.686;9.008;2022-08-16T04:00:54;17.20;99.90
9201;DHT22;4635;48.686;9.008;2022-08-16T04:03:27;17.30;99.90
9201;DHT22;4635;48.686;9.008;2022-08-16T04:06:03;17.30;99.90
9201;DHT22;4635;48.686;9.008;2022-08-16T04:08:50;17.30;99.90
9201;DHT22;4635;48.686;9.008;2022-08-16T04:14:34;17.30;99.90
9201;DHT22;4635;48.686;9.008;2022-08-16T04:17:22;17.40;99.90
9201;DHT22;4635;48.686;9.008;2022-08-16T04:20:09;17.40;99.90
9201;DHT22;4635;48.686;9.008;2022-08-16T04:22:44;17.40;99.90
9201;DHT22;4635;48.686;9.008;2022-08-16T04:25:31;17.40;99.90
9201;DHT22;4635;48.686;9.008;2022-08-16T04:28:11;17.40;99.90
9201;DHT22;4635;48.686;9.008;2022-08-16T04:30:58;17.40;99.90
9201;DHT22;4635;48.686;9.008;2022-08-16T04:33:43;17.50;99.90
9201;DHT22;4635;48.686;9.008;2022-08-16T04:36:23;17.50;99.90
9201;DHT22;4635;48.686;9.008;2022-08-16T04:39:03;17.40;99.90
9201;DHT22;4635;48.686;9.008;2022-08-16T04:41:40;17.50;99.90
9201;DHT22;4635;48.686;9.008;2022-08-16T04:44:21;17.50;99.90
9201;DHT22;4635;48.686;9.008;2022-08-16T04:47:05;17.60;99.90
9201;DHT22;4635;48.686;9.008;2022-08-16T04:49:48;17.60;99.90
9201;DHT22;4635;48.686;9.008;2022-08-16T04:52:24;17.70;99.90
9201;DHT22;4635;48.686;9.008;2022-08-16T04:55:13;17.70;99.90
9201;DHT22;4635;48.686;9.008;2022-08-16T04:57:56;17.70;99.90
9201;DHT22;4635;48.686;9.008;2022-08-16T05:00:33;17.70;99.90
9201;DHT22;4635;48.686;9.008;2022-08-16T05:06:47;17.80;99.90
9201;DHT22;4635;48.686;9.008;2022-08-16T07:30:42;21.30;99.90
9201;DHT22;4635;48.686;9.008;2022-08-16T07:33:35;21.40;99.90
9201;DHT22;4635;48.686;9.008;2022-08-16T07:36:14;21.60;99.90
9201;DHT22;4635;48.686;9.008;2022-08-16T07:39:07;21.60;99.90
9201;DHT22;4635;48.686;9.008;2022-08-16T07:41:53;21.60;99.90
9201;DHT22;4635;48.686;9.008;2022-08-16T07:45:00;21.60;99.90
9201;DHT22;4635;48.686;9.008;2022-08-16T07:51:19;21.90;98.50
9201;DHT22;4635;48.686;9.008;2022-08-16T07:54:31;22.10;97.80
9201;DHT22;4635;48.686;9.008;2022-08-16T07:57:22;22.30;96.50
9201;DHT22;4635;48.686;9.008;2022-08-16T08:00:34;22.40;95.90
9201;DHT22;4635;48.686;9.008;2022-08-16T08:03:12;22.60;92.90
9201;DHT22;4635;48.686;9.008;2022-08-16T08:05:51;22.60;93.80
9201;DHT22;4635;48.686;9.008;2022-08-16T08:08:40;22.90;89.40
9201;DHT22;4635;48.686;9.008;2022-08-16T08:11:25;23.30;82.40
9201;DHT22;4635;48.686;9.008;2022-08-16T08:14:42;23.70;74.80
9201;DHT22;4635;48.686;9.008;2022-08-16T08:17:36;24.70;61.30
9201;DHT22;4635;48.686;9.008;2022-08-16T08:20:15;25.50;52.10
9201;DHT22;4635;48.686;9.008;2022-08-16T08:23:01;26.00;48.70
9201;DHT22;4635;48.686;9.008;2022-08-16T08:26:06;25.70;45.60
9201;DHT22;4635;48.686;9.008;2022-08-16T08:28:54;25.10;50.20
9201;DHT22;4635;48.686;9.008;2022-08-16T08:31:31;24.40;54.20
9201;DHT22;4635;48.686;9.008;2022-08-16T08:34:38;23.90;58.60
9201;DHT22;4635;48.686;9.008;2022-08-16T09:13:19;30.00;2.20
9201;DHT22;4635;48.686;9.008;2022-08-16T09:16:33;29.70;3.20
9201;DHT22;4635;48.686;9.008;2022-08-16T09:19:18;28.70;3.00
9201;DHT22;4635;48.686;9.008;2022-08-16T09:21:58;27.80;7.50
9201;DHT22;4635;48.686;9.008;2022-08-16T09:24:44;26.60;12.60
9201;DHT22;4635;48.686;9.008;2022-08-16T09:27:32;25.70;20.00
9201;DHT22;4635;48.686;9.008;2022-08-16T10:02:20;24.30;34.60
9201;DHT22;4635;48.686;9.008;2022-08-16T10:05:14;24.10;36.30
9201;DHT22;4635;48.686;9.008;2022-08-16T10:07:54;24.30;37.50
9201;DHT22;4635;48.686;9.008;2022-08-16T10:13:44;27.30;20.20
9201;DHT22;4635;48.686;9.008;2022-08-16T10:18:57;27.80;17.10
9201;DHT22;4635;48.686;9.008;2022-08-16T10:23:26;26.50;19.70
9201;DHT22;4635;48.686;9.008;2022-08-16T10:26:27;26.30;20.30
9201;DHT22;4635;48.686;9.008;2022-08-16T10:29:26;26.10;20.80
9201;DHT22;4635;48.686;9.008;2022-08-16T10:32:25;26.10;21.80
9201;DHT22;4635;48.686;9.008;2022-08-16T10:35:20;26.40;20.20
9201;DHT22;4635;48.686;9.008;2022-08-16T10:48:08;26.10;20.10
9201;DHT22;4635;48.686;9.008;2022-08-16T10:51:17;26.00;20.30
9201;DHT22;4635;48.686;9.008;2022-08-16T10:54:05;26.40;18.70
9201;DHT22;4635;48.686;9.008;2022-08-16T10:57:11;26.10;19.10
9201;DHT22;4635;48.686;9.008;2022-08-16T11:00:03;26.10;18.60
9201;DHT22;4635;48.686;9.008;2022-08-16T11:13:23;29.30;6.70
9201;DHT22;4635;48.686;9.008;2022-08-16T11:16:13;32.00;1.00
9201;DHT22;4635;48.686;9.008;2022-08-16T11:19:16;32.60;1.00
9201;DHT22;4635;48.686;9.008;2022-08-16T11:22:26;31.00;1.00
9201;DHT22;4635;48.686;9.008;2022-08-16T11:25:26;32.30;1.00
9201;DHT22;4635;48.686;9.008;2022-08-16T11:31:43;30.20;1.00
9201;DHT22;4635;48.686;9.008;2022-08-16T11:34:56;30.40;1.00
9201;DHT22;4635;48.686;9.008;2022-08-16T11:38:25;31.50;1.00
9201;DHT22;4635;48.686;9.008;2022-08-16T11:41:16;31.60;1.00
9201;DHT22;4635;48.686;9.008;2022-08-16T11:44:46;32.30;1.00
9201;DHT22;4635;48.686;9.008;2022-08-16T12:03:48;29.10;1.00
9201;DHT22;4635;48.686;9.008;2022-08-16T12:06:35;29.00;1.00
9201;DHT22;4635;48.686;9.008;2022-08-16T12:09:36;28.60;1.00
9201;DHT22;4635;48.686;9.008;2022-08-16T12:12:27;28.90;1.00
9201;DHT22;4635;48.686;9.008;2022-08-16T12:15:31;29.90;1.00
9201;DHT22;4635;48.686;9.008;2022-08-16T12:18:44;30.30;1.00
9201;DHT22;4635;48.686;9.008;2022-08-16T12:27:41;30.80;1.00
9201;DHT22;4635;48.686;9.008;2022-08-16T12:30:44;30.80;1.00
9201;DHT22;4635;48.686;9.008;2022-08-16T12:36:55;30.90;1.00
9201;DHT22;4635;48.686;9.008;2022-08-16T12:40:02;30.00;1.00
9201;DHT22;4635;48.686;9.008;2022-08-16T12:54:59;35.20;1.00
9201;DHT22;4635;48.686;9.008;2022-08-16T13:01:29;32.40;1.00
9201;DHT22;4635;48.686;9.008;2022-08-16T13:04:18;31.00;1.00
9201;DHT22;4635;48.686;9.008;2022-08-16T13:07:05;30.90;1.00
9201;DHT22;4635;48.686;9.008;2022-08-16T13:16:25;30.80;1.00
9201;DHT22;4635;48.686;9.008;2022-08-16T13:19:20;30.70;1.00
9201;DHT22;4635;48.686;9.008;2022-08-16T13:25:20;31.30;1.00
9201;DHT22;4635;48.686;9.008;2022-08-16T13:28:07;33.30;1.00
9201;DHT22;4635;48.686;9.008;2022-08-16T13:30:56;35.00;1.00
9201;DHT22;4635;48.686;9.008;2022-08-16T13:40:25;31.90;1.00
9201;DHT22;4635;48.686;9.008;2022-08-16T13:43:01;34.40;1.00
9201;DHT22;4635;48.686;9.008;2022-08-16T13:45:39;36.00;1.00
9201;DHT22;4635;48.686;9.008;2022-08-16T13:48:10;36.60;1.00
9201;DHT22;4635;48.686;9.008;2022-08-16T13:50:52;36.90;1.00
9201;DHT22;4635;48.686;9.008;2022-08-16T13:53:24;34.60;1.00
9201;DHT22;4635;48.686;9.008;2022-08-16T13:56:14;32.80;1.00
9201;DHT22;4635;48.686;9.008;2022-08-16T13:58:43;31.70;1.00
9201;DHT22;4635;48.686;9.008;2022-08-16T14:01:18;30.70;1.00
9201;DHT22;4635;48.686;9.008;2022-08-16T14:04:09;30.00;1.00
9201;DHT22;4635;48.686;9.008;2022-08-16T14:06:49;29.20;1.00
9201;DHT22;4635;48.686;9.008;2022-08-16T14:09:18;29.30;1.00
9201;DHT22;4635;48.686;9.008;2022-08-16T14:11:48;29.60;1.00
9201;DHT22;4635;48.686;9.008;2022-08-16T14:14:16;28.80;1.00
9201;DHT22;4635;48.686;9.008;2022-08-16T14:16:48;28.40;1.00
9201;DHT22;4635;48.686;9.008;2022-08-16T14:19:29;28.60;1.00
9201;DHT22;4635;48.686;9.008;2022-08-16T14:22:00;29.10;1.00
9201;DHT22;4635;48.686;9.008;2022-08-16T14:24:35;29.30;1.00
9201;DHT22;4635;48.686;9.008;2022-08-16T14:27:51;29.40;1.00
9201;DHT22;4635;48.686;9.008;2022-08-16T14:30:38;29.70;1.00
9201;DHT22;4635;48.686;9.008;2022-08-16T14:33:16;29.80;1.00
9201;DHT22;4635;48.686;9.008;2022-08-16T14:35:53;29.90;1.00
9201;DHT22;4635;48.686;9.008;2022-08-16T14:38:47;29.60;1.00
9201;DHT22;4635;48.686;9.008;2022-08-16T14:41:15;29.50;1.00
9201;DHT22;4635;48.686;9.008;2022-08-16T14:43:44;29.30;1.00
9201;DHT22;4635;48.686;9.008;2022-08-16T14:46:23;28.30;1.00
9201;DHT22;4635;48.686;9.008;2022-08-16T14:49:09;28.30;1.00
9201;DHT22;4635;48.686;9.008;2022-08-16T14:51:51;28.40;1.00
9201;DHT22;4635;48.686;9.008;2022-08-16T14:54:29;28.80;1.00
9201;DHT22;4635;48.686;9.008;2022-08-16T14:57:06;28.90;1.00
9201;DHT22;4635;48.686;9.008;2022-08-16T14:59:58;29.10;1.00
9201;DHT22;4635;48.686;9.008;2022-08-16T15:02:27;29.40;1.00
9201;DHT22;4635;48.686;9.008;2022-08-16T15:05:11;29.50;1.00
9201;DHT22;4635;48.686;9.008;2022-08-16T15:07:49;29.60;1.00
9201;DHT22;4635;48.686;9.008;2022-08-16T15:10:34;29.50;1.00
9201;DHT22;4635;48.686;9.008;2022-08-16T15:13:13;29.30;1.00
9201;DHT22;4635;48.686;9.008;2022-08-16T15:15:58;29.30;1.00
9201;DHT22;4635;48.686;9.008;2022-08-16T15:18:26;29.30;1.00
9201;DHT22;4635;48.686;9.008;2022-08-16T15:21:09;29.30;1.00
9201;DHT22;4635;48.686;9.008;2022-08-16T15:23:47;29.20;1.00
9201;DHT22;4635;48.686;9.008;2022-08-16T15:26:16;29.20;1.00
9201;DHT22;4635;48.686;9.008;2022-08-16T15:28:59;29.00;1.00
9201;DHT22;4635;48.686;9.008;2022-08-16T15:31:52;28.90;1.00
9201;DHT22;4635;48.686;9.008;2022-08-16T15:34:25;28.70;1.00
9201;DHT22;4635;48.686;9.008;2022-08-16T15:37:18;28.60;1.00
9201;DHT22;4635;48.686;9.008;2022-08-16T15:39:55;28.20;1.00
9201;DHT22;4635;48.686;9.008;2022-08-16T15:42:29;28.00;1.00
9201;DHT22;4635;48.686;9.008;2022-08-16T15:45:10;28.00;1.00
9201;DHT22;4635;48.686;9.008;2022-08-16T15:48:08;27.90;1.00
9201;DHT22;4635;48.686;9.008;2022-08-16T15:50:42;27.80;1.00
9201;DHT22;4635;48.686;9.008;2022-08-16T15:53:26;27.90;1.00
9201;DHT22;4635;48.686;9.008;2022-08-16T15:56:04;28.00;1.00
9201;DHT22;4635;48.686;9.008;2022-08-16T15:58:43;28.10;1.00
9201;DHT22;4635;48.686;9.008;2022-08-16T16:01:17;28.20;1.00
9201;DHT22;4635;48.686;9.008;2022-08-16T16:03:53;28.00;1.00
9201;DHT22;4635;48.686;9.008;2022-08-16T16:06:23;28.30;1.00
9201;DHT22;4635;48.686;9.008;2022-08-16T16:09:06;28.30;1.00
9201;DHT22;4635;48.686;9.008;2022-08-16T16:11:38;28.30;1.00
9201;DHT22;4635;48.686;9.008;2022-08-16T16:14:09;28.20;1.00
9201;DHT22;4635;48.686;9.008;2022-08-16T16:16:46;27.90;1.00
9201;DHT22;4635;48.686;9.008;2022-08-16T16:19:18;27.70;1.00
9201;DHT22;4635;48.686;9.008;2022-08-16T16:24:26;27.70;1.00
9201;DHT22;4635;48.686;9.008;2022-08-16T16:26:56;27.80;1.00
9201;DHT22;4635;48.686;9.008;2022-08-16T16:29:26;27.70;1.00
9201;DHT22;4635;48.686;9.008;2022-08-16T16:31:59;27.70;1.00
9201;DHT22;4635;48.686;9.008;2022-08-16T16:34:33;27.60;1.00
9201;DHT22;4635;48.686;9.008;2022-08-16T16:37:03;27.50;1.00
9201;DHT22;4635;48.686;9.008;2022-08-16T16:39:30;27.40;1.00
9201;DHT22;4635;48.686;9.008;2022-08-16T16:41:58;27.40;1.00
9201;DHT22;4635;48.686;9.008;2022-08-16T16:44:25;27.40;1.00
9201;DHT22;4635;48.686;9.008;2022-08-16T16:46:52;27.30;1.00
9201;DHT22;4635;48.686;9.008;2022-08-16T16:49:19;27.30;1.00
9201;DHT22;4635;48.686;9.008;2022-08-16T16:51:50;27.30;1.00
9201;DHT22;4635;48.686;9.008;2022-08-16T16:54:18;27.30;1.00
9201;DHT22;4635;48.686;9.008;2022-08-16T16:56:51;27.20;1.00
9201;DHT22;4635;48.686;9.008;2022-08-16T16:59:18;27.20;1.00
9201;DHT22;4635;48.686;9.008;2022-08-16T17:01:48;27.10;1.00
9201;DHT22;4635;48.686;9.008;2022-08-16T17:04:18;27.00;1.00
9201;DHT22;4635;48.686;9.008;2022-08-16T17:06:50;27.00;1.00
9201;DHT22;4635;48.686;9.008;2022-08-16T17:09:18;26.90;1.00
9201;DHT22;4635;48.686;9.008;2022-08-16T17:11:45;26.90;1.00
9201;DHT22;4635;48.686;9.008;2022-08-16T17:14:17;26.80;1.00
9201;DHT22;4635;48.686;9.008;2022-08-16T17:16:45;26.70;1.00
9201;DHT22;4635;48.686;9.008;2022-08-16T17:19:13;26.70;1.00
9201;DHT22;4635;48.686;9.008;2022-08-16T17:21:41;26.70;1.00
9201;DHT22;4635;48.686;9.008;2022-08-16T17:24:15;26.70;1.00
9201;DHT22;4635;48.686;9.008;2022-08-16T17:26:45;26.70;1.00
9201;DHT22;4635;48.686;9.008;2022-08-16T17:29:15;26.70;1.00
9201;DHT22;4635;48.686;9.008;2022-08-16T17:31:47;26.50;1.00
9201;DHT22;4635;48.686;9.008;2022-08-16T17:34:19;26.60;1.00
9201;DHT22;4635;48.686;9.008;2022-08-16T17:36:49;26.50;1.00
9201;DHT22;4635;48.686;9.008;2022-08-16T17:39:21;26.50;1.00
9201;DHT22;4635;48.686;9.008;2022-08-16T17:41:50;26.50;1.00
9201;DHT22;4635;48.686;9.008;2022-08-16T17:44:20;26.40;1.00
9201;DHT22;4635;48.686;9.008;2022-08-16T17:46:48;26.30;1.00
9201;DHT22;4635;48.686;9.008;2022-08-16T17:49:19;26.20;1.00
9201;DHT22;4635;48.686;9.008;2022-08-16T17:51:46;26.20;1.00
9201;DHT22;4635;48.686;9.008;2022-08-16T17:54:15;26.20;1.00
9201;DHT22;4635;48.686;9.008;2022-08-16T17:56:44;26.20;1.00
9201;DHT22;4635;48.686;9.008;2022-08-16T17:59:12;26.10;1.00
9201;DHT22;4635;48.686;9.008;2022-08-16T18:01:40;26.10;1.00
9201;DHT22;4635;48.686;9.008;2022-08-16T18:04:08;26.00;1.00
9201;DHT22;4635;48.686;9.008;2022-08-16T18:06:35;26.00;1.00
9201;DHT22;4635;48.686;9.008;2022-08-16T18:09:03;25.80;1.00
9201;DHT22;4635;48.686;9.008;2022-08-16T18:11:32;25.80;1.00
9201;DHT22;4635;48.686;9.008;2022-08-16T18:14:11;25.70;1.00
9201;DHT22;4635;48.686;9.008;2022-08-16T18:16:42;25.60;1.00
9201;DHT22;4635;48.686;9.008;2022-08-16T18:19:10;25.60;1.00
9201;DHT22;4635;48.686;9.008;2022-08-16T18:21:38;25.50;1.00
9201;DHT22;4635;48.686;9.008;2022-08-16T18:24:22;25.50;1.00
9201;DHT22;4635;48.686;9.008;2022-08-16T18:26:50;25.50;1.00
9201;DHT22;4635;48.686;9.008;2022-08-16T18:29:19;25.40;1.00
9201;DHT22;4635;48.686;9.008;2022-08-16T18:31:52;25.30;1.00
9201;DHT22;4635;48.686;9.008;2022-08-16T18:34:19;25.30;1.00
9201;DHT22;4635;48.686;9.008;2022-08-16T18:36:48;25.10;1.00
9201;DHT22;4635;48.686;9.008;2022-08-16T18:39:15;24.90;1.00
9201;DHT22;4635;48.686;9.008;2022-08-16T18:41:43;24.80;1.00
9201;DHT22;4635;48.686;9.008;2022-08-16T18:44:12;24.70;1.00
9201;DHT22;4635;48.686;9.008;2022-08-16T18:46:43;24.70;1.00
9201;DHT22;4635;48.686;9.008;2022-08-16T18:49:11;24.70;1.00
9201;DHT22;4635;48.686;9.008;2022-08-16T18:51:38;24.60;1.00
9201;DHT22;4635;48.686;9.008;2022-08-16T18:54:07;24.50;1.00
9201;DHT22;4635;48.686;9.008;2022-08-16T18:56:35;24.60;1.00
9201;DHT22;4635;48.686;9.008;2022-08-16T18:59:03;24.50;1.00
9201;DHT22;4635;48.686;9.008;2022-08-16T19:01:31;24.40;1.00
9201;DHT22;4635;48.686;9.008;2022-08-16T19:04:02;24.30;1.00
9201;DHT22;4635;48.686;9.008;2022-08-16T19:06:30;24.20;1.00
9201;DHT22;4635;48.686;9.008;2022-08-16T19:08:57;24.10;1.00
9201;DHT22;4635;48.686;9.008;2022-08-16T19:11:26;24.10;1.00
9201;DHT22;4635;48.686;9.008;2022-08-16T19:13:55;24.00;1.00
9201;DHT22;4635;48.686;9.008;2022-08-16T19:16:23;23.90;1.00
9201;DHT22;4635;48.686;9.008;2022-08-16T19:18:50;23.80;1.00
9201;DHT22;4635;48.686;9.008;2022-08-16T19:21:19;23.80;1.00
9201;DHT22;4635;48.686;9.008;2022-08-16T19:23:46;23.70;2.20
9201;DHT22;4635;48.686;9.008;2022-08-16T19:26:15;23.50;3.20
9201;DHT22;4635;48.686;9.008;2022-08-16T19:28:44;23.70;4.40
9201;DHT22;4635;48.686;9.008;2022-08-16T19:31:14;23.70;5.60
9201;DHT22;4635;48.686;9.008;2022-08-16T19:33:43;23.60;6.70
9201;DHT22;4635;48.686;9.008;2022-08-16T19:36:14;23.40;8.50
9201;DHT22;4635;48.686;9.008;2022-08-16T19:38:45;23.40;9.80
9201;DHT22;4635;48.686;9.008;2022-08-16T19:41:14;23.30;11.00
9201;DHT22;4635;48.686;9.008;2022-08-16T19:43:42;23.30;11.90
9201;DHT22;4635;48.686;9.008;2022-08-16T19:46:09;23.30;12.70
9201;DHT22;4635;48.686;9.008;2022-08-16T19:48:37;23.20;13.70
9201;DHT22;4635;48.686;9.008;2022-08-16T19:51:05;23.20;14.90
9201;DHT22;4635;48.686;9.008;2022-08-16T19:53:34;23.20;16.20
9201;DHT22;4635;48.686;9.008;2022-08-16T19:56:14;23.10;17.20
9201;DHT22;4635;48.686;9.008;2022-08-16T19:58:43;23.00;18.00
9201;DHT22;4635;48.686;9.008;2022-08-16T20:01:10;23.00;19.50
9201;DHT22;4635;48.686;9.008;2022-08-16T20:03:38;22.90;20.40
9201;DHT22;4635;48.686;9.008;2022-08-16T20:06:06;22.90;21.80
9201;DHT22;4635;48.686;9.008;2022-08-16T20:08:33;22.90;23.70
9201;DHT22;4635;48.686;9.008;2022-08-16T20:11:00;22.80;23.80
9201;DHT22;4635;48.686;9.008;2022-08-16T20:13:29;22.80;25.00
9201;DHT22;4635;48.686;9.008;2022-08-16T20:15:57;22.70;25.50
9201;DHT22;4635;48.686;9.008;2022-08-16T20:18:25;22.70;26.40
9201;DHT22;4635;48.686;9.008;2022-08-16T20:20:56;22.70;27.30
9201;DHT22;4635;48.686;9.008;2022-08-16T20:23:24;22.70;28.00
9201;DHT22;4635;48.686;9.008;2022-08-16T20:25:53;22.60;35.60
9201;DHT22;4635;48.686;9.008;2022-08-16T20:28:21;22.50;40.10
9201;DHT22;4635;48.686;9.008;2022-08-16T20:30:50;22.50;38.30
9201;DHT22;4635;48.686;9.008;2022-08-16T20:33:18;22.40;39.80
9201;DHT22;4635;48.686;9.008;2022-08-16T20:35:45;22.40;43.60
9201;DHT22;4635;48.686;9.008;2022-08-16T20:38:12;22.40;45.70
9201;DHT22;4635;48.686;9.008;2022-08-16T20:40:40;22.30;46.20
9201;DHT22;4635;48.686;9.008;2022-08-16T20:43:09;22.30;44.90
9201;DHT22;4635;48.686;9.008;2022-08-16T20:45:38;22.30;46.40
9201;DHT22;4635;48.686;9.008;2022-08-16T20:48:09;22.20;47.30
9201;DHT22;4635;48.686;9.008;2022-08-16T20:50:38;22.20;47.70
9201;DHT22;4635;48.686;9.008;2022-08-16T20:53:06;22.10;49.10
9201;DHT22;4635;48.686;9.008;2022-08-16T20:55:35;22.10;50.90
9201;DHT22;4635;48.686;9.008;2022-08-16T20:58:04;22.10;62.10
9201;DHT22;4635;48.686;9.008;2022-08-16T21:00:32;22.00;62.70
9201;DHT22;4635;48.686;9.008;2022-08-16T21:03:04;21.80;66.10
9201;DHT22;4635;48.686;9.008;2022-08-16T21:05:33;21.80;80.80
9201;DHT22;4635;48.686;9.008;2022-08-16T21:08:00;21.70;79.10
9201;DHT22;4635;48.686;9.008;2022-08-16T21:10:28;21.60;79.40
9201;DHT22;4635;48.686;9.008;2022-08-16T21:12:57;21.60;78.30
9201;DHT22;4635;48.686;9.008;2022-08-16T21:15:28;21.50;83.80
9201;DHT22;4635;48.686;9.008;2022-08-16T21:18:00;21.40;83.10
9201;DHT22;4635;48.686;9.008;2022-08-16T21:20:28;21.30;91.00
9201;DHT22;4635;48.686;9.008;2022-08-16T21:23:02;21.20;90.20
9201;DHT22;4635;48.686;9.008;2022-08-16T21:25:31;21.20;94.10
9201;DHT22;4635;48.686;9.008;2022-08-16T21:27:59;21.00;93.90
9201;DHT22;4635;48.686;9.008;2022-08-16T21:30:26;21.00;94.10
9201;DHT22;4635;48.686;9.008;2022-08-16T21:33:00;20.90;94.40
9201;DHT22;4635;48.686;9.008;2022-08-16T21:35:27;20.90;97.00
9201;DHT22;4635;48.686;9.008;2022-08-16T21:37:56;20.90;96.60
9201;DHT22;4635;48.686;9.008;2022-08-16T21:40:24;20.90;96.40
9201;DHT22;4635;48.686;9.008;2022-08-16T21:42:53;20.80;99.40
9201;DHT22;4635;48.686;9.008;2022-08-16T21:45:20;20.80;99.60
9201;DHT22;4635;48.686;9.008;2022-08-16T21:47:48;20.70;99.90
9201;DHT22;4635;48.686;9.008;2022-08-16T21:50:15;20.70;99.90
9201;DHT22;4635;48.686;9.008;2022-08-16T21:52:43;20.60;99.90
9201;DHT22;4635;48.686;9.008;2022-08-16T21:55:11;20.60;99.90
9201;DHT22;4635;48.686;9.008;2022-08-16T21:57:40;20.60;99.90
9201;DHT22;4635;48.686;9.008;2022-08-16T22:00:10;20.50;99.90
9201;DHT22;4635;48.686;9.008;2022-08-16T22:02:39;20.50;99.90
9201;DHT22;4635;48.686;9.008;2022-08-16T22:05:07;20.40;1.00
9201;DHT22;4635;48.686;9.008;2022-08-16T22:07:34;20.40;1.00
9201;DHT22;4635;48.686;9.008;2022-08-16T22:10:03;20.30;99.90
9201;DHT22;4635;48.686;9.008;2022-08-16T22:12:32;20.20;99.90
9201;DHT22;4635;48.686;9.008;2022-08-16T22:14:59;20.20;99.90
9201;DHT22;4635;48.686;9.008;2022-08-16T22:17:27;20.10;99.90
9201;DHT22;4635;48.686;9.008;2022-08-16T22:19:54;20.10;99.90
9201;DHT22;4635;48.686;9.008;2022-08-16T22:22:22;20.00;99.90
9201;DHT22;4635;48.686;9.008;2022-08-16T22:24:49;19.90;99.90
9201;DHT22;4635;48.686;9.008;2022-08-16T22:27:17;19.90;99.90
9201;DHT22;4635;48.686;9.008;2022-08-16T22:29:46;19.90;99.90
9201;DHT22;4635;48.686;9.008;2022-08-16T22:32:13;19.90;99.90
9201;DHT22;4635;48.686;9.008;2022-08-16T22:34:40;19.90;99.90
9201;DHT22;4635;48.686;9.008;2022-08-16T22:37:08;19.90;99.90
9201;DHT22;4635;48.686;9.008;2022-08-16T22:39:38;19.80;99.90